Terminal Aerodrome Forecast
Issued by NWS

Home | Current Version | Previous Version | Text Only | Print | Product List | Glossary On
Versions: 1 2 3 4 5 6 7 8 9 10 11 12
395
FTUS45 KRIW 222336
TAFBPI
TAF
KBPI 222336Z 2300/2324 15008KT P6SM VCSH SCT035 BKN050
     FM230300 35010KT 3SM -SN BKN015 OVC030
     FM230800 VRB06KT P6SM SCT030 BKN070
     FM231900 16009KT P6SM SCT020 BKN030=

USA.gov is the U.S. government's official web portal to all federal, state and local government web resources and services.